createdAt,value
2022-11-12T00:03:09.597Z,95621.00
2022-11-12T00:07:33.624Z,95614.00
2022-11-12T00:12:06.509Z,95621.00
2022-11-12T00:16:26.736Z,95619.00
2022-11-12T00:20:49.441Z,95612.00
2022-11-12T00:25:10.376Z,95608.00
2022-11-12T00:29:30.645Z,95608.00
2022-11-12T00:33:51.627Z,95615.00
2022-11-12T00:38:12.614Z,95616.00
2022-11-12T00:43:29.260Z,95608.00
2022-11-12T00:47:49.782Z,95613.00
2022-11-12T00:52:13.464Z,95611.00
2022-11-12T00:56:42.956Z,95616.00
2022-11-12T01:01:08.817Z,95615.00
2022-11-12T01:05:50.413Z,95614.00
2022-11-12T01:10:14.491Z,95612.00
2022-11-12T01:14:48.551Z,95616.00
2022-11-12T01:19:13.966Z,95613.00
2022-11-12T01:24:18.391Z,95620.00
2022-11-12T01:29:46.425Z,95620.00
2022-11-12T01:34:08.911Z,95605.00
2022-11-12T01:44:46.768Z,95595.00
2022-11-12T01:50:11.654Z,95601.00
2022-11-12T01:55:01.350Z,95596.00
2022-11-12T01:59:30.310Z,95594.00
2022-11-12T02:03:52.137Z,95589.00
2022-11-12T02:08:15.051Z,95587.00
2022-11-12T02:13:00.589Z,95575.00
2022-11-12T02:17:21.906Z,95592.00
2022-11-12T02:21:46.915Z,95571.00
2022-11-12T02:26:21.535Z,95571.00
2022-11-12T02:30:48.761Z,95571.00
2022-11-12T02:35:12.224Z,95577.00
2022-11-12T02:39:58.264Z,95570.00
2022-11-12T02:44:51.004Z,95573.00
2022-11-12T02:49:11.521Z,95577.00
2022-11-12T02:53:32.682Z,95584.00
2022-11-12T02:57:58.386Z,95586.00
2022-11-12T03:02:18.935Z,95587.00
2022-11-12T03:06:42.660Z,95573.00
2022-11-12T03:11:13.153Z,95576.00
2022-11-12T03:15:33.497Z,95584.00
2022-11-12T03:19:54.181Z,95589.00
2022-11-12T03:24:14.878Z,95581.00
2022-11-12T03:28:35.077Z,95579.00
2022-11-12T03:32:55.945Z,95593.00
2022-11-12T03:37:16.668Z,95591.00
2022-11-12T03:41:51.817Z,95585.00
2022-11-12T03:46:12.134Z,95585.00
2022-11-12T03:50:51.916Z,95578.00
2022-11-12T03:55:37.234Z,95584.00
2022-11-12T03:59:57.804Z,95575.00
2022-11-12T04:04:18.022Z,95572.00
2022-11-12T04:08:38.626Z,95567.00
2022-11-12T04:18:16.993Z,95568.00
2022-11-12T04:22:37.121Z,95565.00
2022-11-12T04:26:57.616Z,95566.00
2022-11-12T04:31:17.751Z,95569.00
2022-11-12T04:35:38.257Z,95562.00
2022-11-12T04:40:20.863Z,95565.00
2022-11-12T04:49:51.880Z,95570.00
2022-11-12T04:54:12.635Z,95560.00
2022-11-12T04:59:12.180Z,95561.00
2022-11-12T05:03:33.764Z,95568.00
2022-11-12T05:08:00.480Z,95563.00
2022-11-12T05:12:36.564Z,95560.00
2022-11-12T05:18:06.522Z,95560.00
2022-11-12T05:22:42.869Z,95564.00
2022-11-12T05:27:18.363Z,95562.00
2022-11-12T05:31:38.996Z,95549.00
2022-11-12T05:36:00.603Z,95571.00
2022-11-12T05:40:20.869Z,95565.00
2022-11-12T05:44:41.765Z,95579.00
2022-11-12T05:49:02.307Z,95572.00
2022-11-12T05:53:31.400Z,95574.00
2022-11-12T05:57:56.658Z,95574.00
2022-11-12T06:02:17.072Z,95583.00
2022-11-12T06:06:38.481Z,95583.00
2022-11-12T06:11:23.120Z,95587.00
2022-11-12T06:16:47.570Z,95588.00
2022-11-12T06:26:20.782Z,95590.00
2022-11-12T06:30:53.466Z,95593.00
2022-11-12T06:35:20.031Z,95598.00
2022-11-12T06:39:42.784Z,95600.00
2022-11-12T06:44:07.694Z,95599.00
2022-11-12T06:48:40.755Z,95606.00
2022-11-12T06:53:01.119Z,95605.00
2022-11-12T06:57:21.772Z,95606.00
2022-11-12T07:01:42.540Z,95604.00
2022-11-12T07:06:13.504Z,95602.00
2022-11-12T07:10:34.137Z,95598.00
2022-11-12T07:14:58.578Z,95598.00
2022-11-12T07:19:20.013Z,95605.00
2022-11-12T07:23:47.547Z,95614.00
2022-11-12T07:28:08.910Z,95606.00
2022-11-12T07:32:45.884Z,95610.00
2022-11-12T07:38:35.392Z,95625.00
2022-11-12T07:43:21.306Z,95619.00
2022-11-12T07:47:54.014Z,95619.00
2022-11-12T07:53:16.343Z,95622.00
2022-11-12T07:57:41.666Z,95627.00
2022-11-12T08:02:05.917Z,95625.00
2022-11-12T08:06:31.094Z,95616.00
2022-11-12T08:10:55.596Z,95639.00
2022-11-12T08:16:06.325Z,95645.00
2022-11-12T08:20:27.300Z,95633.00
2022-11-12T08:25:11.719Z,95633.00
2022-11-12T08:29:57.517Z,95636.00
2022-11-12T08:34:22.848Z,95637.00
2022-11-12T08:39:08.346Z,95644.00
2022-11-12T08:43:28.868Z,95652.00
2022-11-12T08:47:50.590Z,95658.00
2022-11-12T08:52:32.932Z,95654.00
2022-11-12T08:57:18.328Z,95651.00
2022-11-12T09:01:39.010Z,95637.00
2022-11-12T09:06:03.000Z,95641.00
2022-11-12T09:10:33.514Z,95636.00
2022-11-12T09:15:37.485Z,95640.00
2022-11-12T09:20:05.808Z,95641.00
2022-11-12T09:24:51.314Z,95650.00
2022-11-12T09:29:15.398Z,95655.00
2022-11-12T09:33:39.644Z,95661.00
2022-11-12T09:38:00.184Z,95656.00
2022-11-12T09:42:23.119Z,95664.00
2022-11-12T09:47:29.911Z,95673.00
2022-11-12T09:51:54.022Z,95674.00
2022-11-12T09:56:22.194Z,95661.00
2022-11-12T10:01:04.140Z,95672.00
2022-11-12T10:05:46.427Z,95671.00
2022-11-12T10:10:40.934Z,95678.00
2022-11-12T10:15:52.756Z,95678.00
2022-11-12T10:20:20.876Z,95670.00
2022-11-12T10:24:52.038Z,95667.00
2022-11-12T10:29:31.501Z,95666.00
2022-11-12T10:34:16.671Z,95668.00
2022-11-12T10:38:38.924Z,95668.00
2022-11-12T10:43:16.978Z,95667.00
2022-11-12T10:47:44.603Z,95661.00
2022-11-12T10:52:23.055Z,95666.00
2022-11-12T10:56:43.410Z,95651.00
2022-11-12T11:01:23.293Z,95657.00
2022-11-12T11:05:50.502Z,95650.00
2022-11-12T11:10:36.637Z,95646.00
2022-11-12T11:15:10.901Z,95639.00
2022-11-12T11:19:39.570Z,95629.00
2022-11-12T11:24:31.983Z,95631.00
2022-11-12T11:29:04.428Z,95634.00
2022-11-12T11:34:19.298Z,95629.00
2022-11-12T11:39:14.811Z,95627.00
2022-11-12T11:43:54.359Z,95630.00
2022-11-12T11:48:47.758Z,95617.00
2022-11-12T11:54:10.972Z,95617.00
2022-11-12T11:59:01.541Z,95615.00
2022-11-12T12:03:31.695Z,95613.00
2022-11-12T12:08:43.198Z,95614.00
2022-11-12T12:13:15.343Z,95615.00
2022-11-12T12:18:04.024Z,95605.00
2022-11-12T12:23:00.780Z,95617.00
2022-11-12T12:27:27.407Z,95605.00
2022-11-12T12:32:38.052Z,95612.00
2022-11-12T12:37:05.286Z,95607.00
2022-11-12T12:42:20.419Z,95602.00
2022-11-12T12:46:53.431Z,95598.00
2022-11-12T12:52:07.174Z,95597.00
2022-11-12T12:56:31.293Z,95582.00
2022-11-12T13:01:15.313Z,95577.00
2022-11-12T13:06:14.188Z,95577.00
2022-11-12T13:10:47.292Z,95579.00
2022-11-12T13:16:04.456Z,95582.00
2022-11-12T13:21:38.100Z,95574.00
2022-11-12T13:26:35.998Z,95581.00
2022-11-12T13:30:57.967Z,95571.00
2022-11-12T13:35:18.765Z,95570.00
2022-11-12T13:40:09.506Z,95570.00
2022-11-12T13:44:56.319Z,95563.00
2022-11-12T13:49:29.955Z,95559.00
2022-11-12T13:53:50.288Z,95554.00
2022-11-12T13:58:31.432Z,95553.00
2022-11-12T14:03:03.739Z,95560.00
2022-11-12T14:07:45.258Z,95557.00
2022-11-12T14:12:49.708Z,95561.00
2022-11-12T14:17:46.421Z,95553.00
2022-11-12T14:22:09.378Z,95560.00
2022-11-12T14:26:41.487Z,95542.00
2022-11-12T14:31:13.476Z,95535.00
2022-11-12T14:35:41.069Z,95533.00
2022-11-12T14:40:16.537Z,95532.00
2022-11-12T14:44:39.176Z,95538.00
2022-11-12T14:49:40.700Z,95526.00
2022-11-12T14:54:10.963Z,95522.00
2022-11-12T14:58:32.912Z,95525.00
2022-11-12T15:02:59.310Z,95522.00
2022-11-12T15:07:41.843Z,95527.00
2022-11-12T15:12:35.122Z,95529.00
2022-11-12T15:17:02.040Z,95522.00
2022-11-12T15:21:28.099Z,95531.00
2022-11-12T15:26:01.075Z,95526.00
2022-11-12T15:30:30.639Z,95525.00
2022-11-12T15:34:57.013Z,95522.00
2022-11-12T15:40:32.989Z,95518.00
2022-11-12T15:44:58.895Z,95520.00
2022-11-12T15:49:20.825Z,95516.00
2022-11-12T15:53:46.703Z,95517.00
2022-11-12T15:58:20.573Z,95519.00
2022-11-12T16:03:03.742Z,95514.00
2022-11-12T16:07:24.063Z,95513.00
2022-11-12T16:11:44.500Z,95515.00
2022-11-12T16:16:08.148Z,95514.00
2022-11-12T16:20:38.338Z,95509.00
2022-11-12T16:25:21.180Z,95507.00
2022-11-12T16:29:42.981Z,95502.00
2022-11-12T16:34:05.496Z,95501.00
2022-11-12T16:38:26.205Z,95510.00
2022-11-12T16:42:46.766Z,95506.00
2022-11-12T16:47:33.307Z,95511.00
2022-11-12T16:51:53.745Z,95505.00
2022-11-12T16:56:22.850Z,95509.00
2022-11-12T17:00:50.272Z,95503.00
2022-11-12T17:05:17.858Z,95507.00
2022-11-12T17:09:38.400Z,95507.00
2022-11-12T17:14:00.939Z,95509.00
2022-11-12T17:18:31.058Z,95509.00
2022-11-12T17:23:58.134Z,95508.00
2022-11-12T17:28:19.792Z,95508.00
2022-11-12T17:32:51.755Z,95510.00
2022-11-12T17:37:12.031Z,95498.00
2022-11-12T17:42:14.465Z,95494.00
2022-11-12T17:47:34.604Z,95488.00
2022-11-12T17:57:57.346Z,95479.00
2022-11-12T18:02:17.848Z,95486.00
2022-11-12T18:07:03.395Z,95496.00
2022-11-12T18:11:24.896Z,95491.00
2022-11-12T18:15:45.231Z,95487.00
2022-11-12T18:20:06.567Z,95487.00
2022-11-12T18:24:27.244Z,95482.00
2022-11-12T18:28:58.757Z,95482.00
2022-11-12T18:33:19.394Z,95475.00
2022-11-12T18:37:39.957Z,95480.00
2022-11-12T18:47:56.525Z,95487.00
2022-11-12T18:52:20.180Z,95486.00
2022-11-12T18:56:48.036Z,95481.00
2022-11-12T19:01:21.111Z,95494.00
2022-11-12T19:05:41.939Z,95470.00
2022-11-12T19:10:14.661Z,95484.00
2022-11-12T19:14:40.866Z,95488.00
2022-11-12T19:19:01.445Z,95484.00
2022-11-12T19:23:22.183Z,95483.00
2022-11-12T19:27:51.750Z,95475.00
2022-11-12T19:32:13.649Z,95489.00
2022-11-12T19:42:09.992Z,95497.00
2022-11-12T19:46:32.550Z,95496.00
2022-11-12T19:50:53.342Z,95486.00
2022-11-12T19:55:17.748Z,95489.00
2022-11-12T20:00:28.122Z,95486.00
2022-11-12T20:05:16.574Z,95490.00
2022-11-12T20:15:41.770Z,95477.00
2022-11-12T20:20:27.148Z,95482.00
2022-11-12T20:24:53.998Z,95470.00
2022-11-12T20:29:14.359Z,95474.00
2022-11-12T20:33:40.861Z,95477.00
2022-11-12T20:38:05.112Z,95482.00
2022-11-12T20:42:25.770Z,95463.00
2022-11-12T20:46:46.332Z,95452.00
2022-11-12T20:55:32.748Z,95459.00
2022-11-12T21:00:23.783Z,95446.00
2022-11-12T21:04:44.925Z,95446.00
2022-11-12T21:09:05.564Z,95441.00
2022-11-12T21:13:26.374Z,95436.00
2022-11-12T21:17:50.545Z,95438.00
2022-11-12T21:22:11.273Z,95439.00
2022-11-12T21:26:34.445Z,95441.00
2022-11-12T21:31:09.769Z,95435.00
2022-11-12T21:35:33.479Z,95426.00
2022-11-12T21:39:53.908Z,95439.00
2022-11-12T21:44:20.018Z,95428.00
2022-11-12T21:49:43.957Z,95433.00
2022-11-12T21:54:07.607Z,95412.00
2022-11-12T21:58:29.915Z,95424.00
2022-11-12T22:02:50.663Z,95414.00
2022-11-12T22:07:16.744Z,95411.00
2022-11-12T22:12:04.290Z,95410.00
2022-11-12T22:16:50.063Z,95406.00
2022-11-12T22:21:22.971Z,95391.00
2022-11-12T22:26:35.016Z,95403.00
2022-11-12T22:30:55.551Z,95410.00
2022-11-12T22:35:15.996Z,95405.00
2022-11-12T22:39:36.259Z,95404.00
2022-11-12T22:44:59.043Z,95402.00
2022-11-12T22:49:19.616Z,95406.00
2022-11-12T22:54:06.311Z,95405.00
2022-11-12T22:58:41.096Z,95403.00
2022-11-12T23:03:01.431Z,95392.00
2022-11-12T23:07:22.095Z,95395.00
2022-11-12T23:12:07.211Z,95396.00
2022-11-12T23:16:30.756Z,95375.00
2022-11-12T23:20:51.644Z,95372.00
2022-11-12T23:25:12.164Z,95366.00
2022-11-12T23:29:33.228Z,95371.00
2022-11-12T23:34:00.394Z,95373.00
2022-11-12T23:38:21.072Z,95361.00
2022-11-12T23:42:41.524Z,95371.00
2022-11-12T23:47:13.999Z,95369.00
2022-11-12T23:51:59.286Z,95372.00
2022-11-12T23:56:20.246Z,95366.00
